createdAt,value
2022-08-05T00:01:29.146Z,46.92
2022-08-05T00:03:57.525Z,47.83
2022-08-05T00:06:32.280Z,46.74
2022-08-05T00:09:00.955Z,47.19
2022-08-05T00:11:34.599Z,46.80
2022-08-05T00:14:12.921Z,46.77
2022-08-05T00:16:53.044Z,46.27
2022-08-05T00:19:21.524Z,46.96
2022-08-05T00:21:49.783Z,47.20
2022-08-05T00:24:19.294Z,46.53
2022-08-05T00:26:53.003Z,47.35
2022-08-05T00:29:25.433Z,47.20
2022-08-05T00:32:13.245Z,46.90
2022-08-05T00:34:55.332Z,47.00
2022-08-05T00:37:50.420Z,47.01
2022-08-05T00:40:17.961Z,47.00
2022-08-05T00:42:56.320Z,46.60
2022-08-05T00:45:38.930Z,46.73
2022-08-05T00:48:10.793Z,47.04
2022-08-05T00:50:41.288Z,46.74
2022-08-05T00:53:45.421Z,46.64
2022-08-05T00:55:59.178Z,47.10
2022-08-05T00:58:27.825Z,46.79
2022-08-05T01:00:56.914Z,46.41
2022-08-05T01:03:30.866Z,47.09
2022-08-05T01:06:00.993Z,47.33
2022-08-05T01:08:42.111Z,46.86
2022-08-05T01:11:13.678Z,46.67
2022-08-05T01:13:59.159Z,47.16
2022-08-05T01:16:30.644Z,46.46
2022-08-05T01:19:07.242Z,47.04
2022-08-05T01:21:53.727Z,47.03
2022-08-05T01:24:30.216Z,46.90
2022-08-05T01:27:32.307Z,47.39
2022-08-05T01:29:51.640Z,47.37
2022-08-05T01:32:21.512Z,47.04
2022-08-05T01:34:50.645Z,47.20
2022-08-05T01:37:24.948Z,47.00
2022-08-05T01:39:54.663Z,47.54
2022-08-05T01:42:26.304Z,47.37
2022-08-05T01:44:55.710Z,47.70
2022-08-05T01:47:23.305Z,47.49
2022-08-05T01:50:01.704Z,47.14
2022-08-05T01:52:30.286Z,47.22
2022-08-05T01:54:58.895Z,47.65
2022-08-05T01:58:12.556Z,47.56
2022-08-05T02:00:18.692Z,47.62
2022-08-05T02:02:53.617Z,47.46
2022-08-05T02:05:23.565Z,47.63
2022-08-05T02:08:00.043Z,47.54
2022-08-05T02:10:28.794Z,47.53
2022-08-05T02:12:57.942Z,47.44
2022-08-05T02:15:33.498Z,47.60
2022-08-05T02:18:30.821Z,47.54
2022-08-05T02:20:55.056Z,47.85
2022-08-05T02:23:29.981Z,47.94
2022-08-05T02:26:01.437Z,47.23
2022-08-05T02:28:35.229Z,47.77
2022-08-05T02:31:14.552Z,47.52
2022-08-05T02:33:44.971Z,47.66
2022-08-05T02:36:17.395Z,47.34
2022-08-05T02:38:53.460Z,47.32
2022-08-05T02:41:22.807Z,47.38
2022-08-05T02:44:02.509Z,47.26
2022-08-05T02:46:35.869Z,47.59
2022-08-05T02:49:11.930Z,47.30
2022-08-05T02:52:03.233Z,47.31
2022-08-05T02:54:35.793Z,47.40
2022-08-05T02:57:10.388Z,47.40
2022-08-05T02:59:54.013Z,47.48
2022-08-05T03:02:27.474Z,47.60
2022-08-05T03:04:55.437Z,47.66
2022-08-05T03:07:59.359Z,47.79
2022-08-05T03:10:10.994Z,47.48
2022-08-05T03:12:41.127Z,47.67
2022-08-05T03:15:10.166Z,47.62
2022-08-05T03:17:42.028Z,48.33
2022-08-05T03:20:13.468Z,47.87
2022-08-05T03:22:44.148Z,47.96
2022-08-05T03:25:33.207Z,47.67
2022-08-05T03:28:06.044Z,47.66
2022-08-05T03:30:35.774Z,48.07
2022-08-05T03:33:06.300Z,48.00
2022-08-05T03:35:41.700Z,48.31
2022-08-05T03:38:09.708Z,48.55
2022-08-05T03:40:40.954Z,48.41
2022-08-05T03:43:58.591Z,48.75
2022-08-05T03:45:58.628Z,48.10
2022-08-05T03:48:29.157Z,48.15
2022-08-05T03:52:35.126Z,48.30
2022-08-05T03:55:49.953Z,47.99
2022-08-05T03:56:38.684Z,48.16
2022-08-05T03:59:14.369Z,48.34
2022-08-05T04:01:49.103Z,48.19
2022-08-05T04:04:21.218Z,47.75
2022-08-05T04:06:51.123Z,48.14
2022-08-05T04:09:26.073Z,48.34
2022-08-05T04:11:54.225Z,48.11
2022-08-05T04:14:29.810Z,47.93
2022-08-05T04:16:59.020Z,47.88
2022-08-05T04:19:28.452Z,48.19
2022-08-05T04:22:08.319Z,47.68
2022-08-05T04:24:43.920Z,48.16
2022-08-05T04:27:12.806Z,48.03
2022-08-05T04:29:40.296Z,48.33
2022-08-05T04:32:08.438Z,48.11
2022-08-05T04:34:43.075Z,48.34
2022-08-05T04:37:10.940Z,48.72
2022-08-05T04:39:39.226Z,49.00
2022-08-05T04:42:08.401Z,49.48
2022-08-05T04:44:36.675Z,49.32
2022-08-05T04:47:09.458Z,49.50
2022-08-05T04:50:03.071Z,49.29
2022-08-05T04:52:27.836Z,49.46
2022-08-05T04:54:57.318Z,49.09
2022-08-05T04:57:29.234Z,48.96
2022-08-05T05:00:04.935Z,48.77
2022-08-05T05:02:36.998Z,48.83
2022-08-05T05:05:16.588Z,48.80
2022-08-05T05:07:56.113Z,48.44
2022-08-05T05:10:24.562Z,48.24
2022-08-05T05:12:56.947Z,48.58
2022-08-05T05:15:57.848Z,48.40
2022-08-05T05:18:13.937Z,48.88
2022-08-05T05:20:43.566Z,48.99
2022-08-05T05:23:19.877Z,49.08
2022-08-05T05:25:47.779Z,48.90
2022-08-05T05:28:15.416Z,49.48
2022-08-05T05:30:43.180Z,49.41
2022-08-05T05:33:17.718Z,49.30
2022-08-05T05:35:52.317Z,49.43
2022-08-05T05:38:22.614Z,49.66
2022-08-05T05:40:54.955Z,49.35
2022-08-05T05:43:54.613Z,49.24
2022-08-05T05:46:17.384Z,49.04
2022-08-05T05:48:47.822Z,49.32
2022-08-05T05:51:21.169Z,48.90
2022-08-05T05:53:57.464Z,48.84
2022-08-05T05:56:32.764Z,48.77
2022-08-05T05:59:03.443Z,48.67
2022-08-05T06:01:38.235Z,48.81
2022-08-05T06:04:07.762Z,49.15
2022-08-05T06:06:36.675Z,48.96
2022-08-05T06:09:04.321Z,49.04
2022-08-05T06:11:31.801Z,49.22
2022-08-05T06:14:00.357Z,49.16
2022-08-05T06:16:36.608Z,49.09
2022-08-05T06:19:05.870Z,49.39
2022-08-05T06:21:38.322Z,49.25
2022-08-05T06:24:11.553Z,49.48
2022-08-05T06:26:40.131Z,49.79
2022-08-05T06:29:25.444Z,49.60
2022-08-05T06:32:25.644Z,49.84
2022-08-05T06:34:56.716Z,49.89
2022-08-05T06:37:55.773Z,49.58
2022-08-05T06:40:14.011Z,49.85
2022-08-05T06:42:46.289Z,49.80
2022-08-05T06:45:21.257Z,49.94
2022-08-05T06:48:37.016Z,49.60
2022-08-05T06:50:49.900Z,49.99
2022-08-05T06:53:22.524Z,50.15
2022-08-05T06:55:56.204Z,50.43
2022-08-05T06:58:34.950Z,51.75
2022-08-05T07:01:04.839Z,51.37
2022-08-05T07:03:33.192Z,50.89
2022-08-05T07:06:01.903Z,51.13
2022-08-05T07:08:35.077Z,51.04
2022-08-05T07:11:04.570Z,51.02
2022-08-05T07:13:57.748Z,50.69
2022-08-05T07:17:59.180Z,50.58
2022-08-05T07:20:23.153Z,50.42
2022-08-05T07:22:22.429Z,50.61
2022-08-05T07:24:58.873Z,50.58
2022-08-05T07:27:27.596Z,50.88
2022-08-05T07:30:24.717Z,50.58
2022-08-05T07:32:55.743Z,50.50
2022-08-05T07:36:03.567Z,50.71
2022-08-05T07:38:32.910Z,50.61
2022-08-05T07:41:04.484Z,50.85
2022-08-05T07:43:48.926Z,50.20
2022-08-05T07:46:24.588Z,50.50
2022-08-05T07:49:03.477Z,50.76
2022-08-05T07:51:37.518Z,50.63
2022-08-05T07:54:10.076Z,50.67
2022-08-05T07:57:13.243Z,50.58
2022-08-05T07:59:38.608Z,50.65
2022-08-05T08:02:16.028Z,50.92
2022-08-05T08:04:45.309Z,51.23
2022-08-05T08:07:13.147Z,51.82
2022-08-05T08:09:40.595Z,51.22
2022-08-05T08:12:19.905Z,51.34
2022-08-05T08:14:57.140Z,51.47
2022-08-05T08:17:30.431Z,51.08
2022-08-05T08:20:22.214Z,50.75
2022-08-05T08:22:50.873Z,51.16
2022-08-05T08:25:26.849Z,50.96
2022-08-05T08:28:18.296Z,50.70
2022-08-05T08:30:55.530Z,50.71
2022-08-05T08:33:23.054Z,51.07
2022-08-05T08:35:53.103Z,51.26
2022-08-05T08:38:37.608Z,50.86
2022-08-05T08:41:06.386Z,50.94
2022-08-05T08:45:20.239Z,51.30
2022-08-05T08:46:23.654Z,50.82
2022-08-05T08:49:06.077Z,50.88
2022-08-05T08:52:03.648Z,51.05
2022-08-05T08:54:27.412Z,51.03
2022-08-05T08:56:56.620Z,50.86
2022-08-05T08:59:27.700Z,50.62
2022-08-05T09:02:01.429Z,50.71
2022-08-05T09:04:30.521Z,50.75
2022-08-05T09:06:58.724Z,50.85
2022-08-05T09:09:34.817Z,50.69
2022-08-05T09:12:19.843Z,50.81
2022-08-05T09:14:56.315Z,51.31
2022-08-05T09:17:40.559Z,51.25
2022-08-05T09:20:10.618Z,51.08
2022-08-05T09:23:19.568Z,51.35
2022-08-05T09:26:00.307Z,51.34
2022-08-05T09:28:33.563Z,51.41
2022-08-05T09:31:22.890Z,51.65
2022-08-05T09:33:53.942Z,51.84
2022-08-05T09:36:21.538Z,51.95
2022-08-05T09:38:58.542Z,51.50
2022-08-05T09:41:26.106Z,51.34
2022-08-05T09:44:00.308Z,51.72
2022-08-05T09:46:30.060Z,51.74
2022-08-05T09:49:07.606Z,51.55
2022-08-05T09:51:48.874Z,51.63
2022-08-05T09:54:21.359Z,51.83
2022-08-05T09:56:57.364Z,51.65
2022-08-05T09:59:27.582Z,51.60
2022-08-05T10:01:58.137Z,51.71
2022-08-05T10:04:36.185Z,52.27
2022-08-05T10:07:19.623Z,51.83
2022-08-05T10:10:14.662Z,51.86
2022-08-05T10:12:49.796Z,52.53
2022-08-05T10:15:22.401Z,52.18
2022-08-05T10:18:09.652Z,52.22
2022-08-05T10:20:38.985Z,52.63
2022-08-05T10:23:08.836Z,52.84
2022-08-05T10:25:56.039Z,52.72
2022-08-05T10:28:29.097Z,52.84
2022-08-05T10:32:53.300Z,52.70
2022-08-05T10:33:45.923Z,52.94
2022-08-05T10:36:23.730Z,53.25
2022-08-05T10:38:56.325Z,52.90
2022-08-05T10:41:46.732Z,53.47
2022-08-05T10:44:17.982Z,53.07
2022-08-05T10:46:46.996Z,53.74
2022-08-05T10:49:26.802Z,53.98
2022-08-05T10:52:00.249Z,53.93
2022-08-05T10:54:56.806Z,53.72
2022-08-05T10:57:31.763Z,54.35
2022-08-05T11:00:19.287Z,53.66
2022-08-05T11:03:24.576Z,54.60
2022-08-05T11:06:16.252Z,55.69
2022-08-05T11:09:18.642Z,55.32
2022-08-05T11:11:53.974Z,55.37
2022-08-05T11:14:57.590Z,55.79
2022-08-05T11:17:59.418Z,55.32
2022-08-05T11:20:37.564Z,55.31
2022-08-05T11:24:02.742Z,54.95
2022-08-05T11:26:29.110Z,55.09
2022-08-05T11:29:11.817Z,54.99
2022-08-05T11:31:58.579Z,54.84
2022-08-05T11:34:39.849Z,54.95
2022-08-05T11:38:28.358Z,54.78
2022-08-05T11:40:02.708Z,55.03
2022-08-05T11:42:32.911Z,54.63
2022-08-05T11:45:14.275Z,54.51
2022-08-05T11:47:54.697Z,54.44
2022-08-05T11:50:22.513Z,54.72
2022-08-05T11:52:53.116Z,54.34
2022-08-05T11:55:22.175Z,54.22
2022-08-05T11:58:10.224Z,54.44
2022-08-05T12:00:39.269Z,54.35
2022-08-05T12:03:29.436Z,54.45
2022-08-05T12:06:00.622Z,54.23
2022-08-05T12:08:28.440Z,54.21
2022-08-05T12:11:05.714Z,54.02
2022-08-05T12:13:48.696Z,54.15
2022-08-05T12:16:19.234Z,54.11
2022-08-05T12:18:48.978Z,54.20
2022-08-05T12:21:22.018Z,54.02
2022-08-05T12:23:55.170Z,53.33
2022-08-05T12:26:24.036Z,53.29
2022-08-05T12:28:51.512Z,53.57
2022-08-05T12:31:23.473Z,53.54
2022-08-05T12:34:00.575Z,53.43
2022-08-05T12:36:28.968Z,53.57
2022-08-05T12:38:57.770Z,53.48
2022-08-05T12:41:34.438Z,52.96
2022-08-05T12:44:03.122Z,53.08
2022-08-05T12:46:31.573Z,52.91
2022-08-05T12:49:00.441Z,53.20
2022-08-05T12:52:12.470Z,52.52
2022-08-05T12:54:23.386Z,52.42
2022-08-05T12:56:56.085Z,52.35
2022-08-05T12:59:27.672Z,52.05
2022-08-05T13:02:12.125Z,51.92
2022-08-05T13:04:41.771Z,51.80
2022-08-05T13:07:55.723Z,51.17
2022-08-05T13:10:11.225Z,50.74
2022-08-05T13:12:42.488Z,51.00
2022-08-05T13:15:24.494Z,50.79
2022-08-05T13:18:03.584Z,50.85
2022-08-05T13:20:34.512Z,50.76
2022-08-05T13:23:01.986Z,50.64
2022-08-05T13:25:52.284Z,50.55
2022-08-05T13:28:24.079Z,50.74
2022-08-05T13:30:53.319Z,50.62
2022-08-05T13:34:22.452Z,50.62
2022-08-05T13:36:09.482Z,50.56
2022-08-05T13:38:42.084Z,50.47
2022-08-05T13:41:10.362Z,50.68
2022-08-05T13:43:44.957Z,50.64
2022-08-05T13:46:50.941Z,50.46
2022-08-05T13:49:11.530Z,50.75
2022-08-05T13:51:41.203Z,50.45
2022-08-05T13:54:11.779Z,50.34
2022-08-05T13:56:44.992Z,50.45
2022-08-05T13:59:21.099Z,50.40
2022-08-05T14:01:57.572Z,50.65
2022-08-05T14:04:49.872Z,50.70
2022-08-05T14:07:25.764Z,50.73
2022-08-05T14:10:06.121Z,50.63
2022-08-05T14:12:35.996Z,50.84
2022-08-05T14:15:22.069Z,50.86
2022-08-05T14:17:55.058Z,50.79
2022-08-05T14:20:27.617Z,50.50
2022-08-05T14:22:55.130Z,50.52
2022-08-05T14:25:28.231Z,50.54
2022-08-05T14:27:58.413Z,50.63
2022-08-05T14:30:28.179Z,50.44
2022-08-05T14:32:56.691Z,50.51
2022-08-05T14:35:37.551Z,50.27
2022-08-05T14:38:31.807Z,50.44
2022-08-05T14:40:59.466Z,50.27
2022-08-05T14:43:58.934Z,50.54
2022-08-05T14:46:15.638Z,50.58
2022-08-05T14:48:43.097Z,50.45
2022-08-05T14:51:16.706Z,50.68
2022-08-05T14:53:45.217Z,50.36
2022-08-05T14:56:32.639Z,50.64
2022-08-05T14:59:00.077Z,50.61
2022-08-05T15:01:48.665Z,50.70
2022-08-05T15:04:16.714Z,50.30
2022-08-05T15:06:49.292Z,50.85
2022-08-05T15:09:50.552Z,50.59
2022-08-05T15:12:05.685Z,51.08
2022-08-05T15:14:36.846Z,50.67
2022-08-05T15:17:45.509Z,50.92
2022-08-05T15:20:06.007Z,50.79
2022-08-05T15:22:33.519Z,51.00
2022-08-05T15:25:00.946Z,51.10
2022-08-05T15:27:42.733Z,51.05
2022-08-05T15:30:14.335Z,50.61
2022-08-05T15:32:45.295Z,50.89
2022-08-05T15:35:13.275Z,51.17
2022-08-05T15:38:33.129Z,51.22
2022-08-05T15:40:58.326Z,51.33
2022-08-05T15:43:20.204Z,51.31
2022-08-05T15:46:00.755Z,51.27
2022-08-05T15:48:30.552Z,51.28
2022-08-05T15:50:58.195Z,51.49
2022-08-05T15:53:38.491Z,51.29
2022-08-05T15:56:18.020Z,51.61
2022-08-05T15:58:46.282Z,51.36
2022-08-05T16:01:16.113Z,51.63
2022-08-05T16:03:48.488Z,51.62
2022-08-05T16:06:20.291Z,51.82
2022-08-05T16:08:48.247Z,52.22
2022-08-05T16:11:20.995Z,52.32
2022-08-05T16:14:06.222Z,52.65
2022-08-05T16:16:35.176Z,52.27
2022-08-05T16:19:04.299Z,52.34
2022-08-05T16:21:59.966Z,52.59
2022-08-05T16:24:40.670Z,52.27
2022-08-05T16:27:07.199Z,52.69
2022-08-05T16:29:37.323Z,53.04
2022-08-05T16:32:06.318Z,53.21
2022-08-05T16:34:35.125Z,53.23
2022-08-05T16:37:02.863Z,53.38
2022-08-05T16:40:06.325Z,53.35
2022-08-05T16:42:35.700Z,52.97
2022-08-05T16:46:02.694Z,52.93
2022-08-05T16:47:54.285Z,53.29
2022-08-05T16:50:26.326Z,53.71
2022-08-05T16:52:53.784Z,54.08
2022-08-05T16:55:24.625Z,53.84
2022-08-05T16:58:00.319Z,53.71
2022-08-05T17:00:34.282Z,53.47
2022-08-05T17:03:02.698Z,53.86
2022-08-05T17:05:32.339Z,53.29
2022-08-05T17:08:04.763Z,53.71
2022-08-05T17:10:32.208Z,53.43
2022-08-05T17:12:59.660Z,53.44
2022-08-05T17:15:29.372Z,52.78
2022-08-05T17:18:15.358Z,53.14
2022-08-05T17:20:44.749Z,53.19
2022-08-05T17:24:03.706Z,53.05
2022-08-05T17:26:00.512Z,52.98
2022-08-05T17:28:29.812Z,53.21
2022-08-05T17:30:57.249Z,53.35
2022-08-05T17:33:25.966Z,52.98
2022-08-05T17:36:08.889Z,52.83
2022-08-05T17:38:37.783Z,52.86
2022-08-05T17:41:07.455Z,53.08
2022-08-05T17:43:54.282Z,52.87
2022-08-05T17:46:23.576Z,53.05
2022-08-05T17:48:51.016Z,52.63
2022-08-05T17:51:21.514Z,52.76
2022-08-05T17:53:50.846Z,52.87
2022-08-05T17:56:22.803Z,52.62
2022-08-05T17:58:51.172Z,52.33
2022-08-05T18:01:19.821Z,52.84
2022-08-05T18:03:58.551Z,52.75
2022-08-05T18:06:33.081Z,52.39
2022-08-05T18:09:03.804Z,51.99
2022-08-05T18:11:33.261Z,52.23
2022-08-05T18:14:04.209Z,52.23
2022-08-05T18:16:32.822Z,51.91
2022-08-05T18:19:00.267Z,52.32
2022-08-05T18:21:28.140Z,51.08
2022-08-05T18:24:16.448Z,51.06
2022-08-05T18:26:44.026Z,50.97
2022-08-05T18:29:11.620Z,51.15
2022-08-05T18:31:43.078Z,51.30
2022-08-05T18:34:12.190Z,50.47
2022-08-05T18:36:41.113Z,50.62
2022-08-05T18:39:09.786Z,50.40
2022-08-05T18:42:02.185Z,50.22
2022-08-05T18:44:35.501Z,49.89
2022-08-05T18:47:16.933Z,49.92
2022-08-05T18:50:01.898Z,49.76
2022-08-05T18:52:37.899Z,49.32
2022-08-05T18:55:10.592Z,49.70
2022-08-05T18:57:43.094Z,49.25
2022-08-05T19:00:20.222Z,49.38
2022-08-05T19:02:48.397Z,49.35
2022-08-05T19:06:11.238Z,49.45
2022-08-05T19:08:07.573Z,49.37
2022-08-05T19:10:41.244Z,49.47
2022-08-05T19:13:12.343Z,49.18
2022-08-05T19:15:58.854Z,49.52
2022-08-05T19:18:28.625Z,49.34
2022-08-05T19:20:56.460Z,49.25
2022-08-05T19:24:07.208Z,49.28
2022-08-05T19:26:11.923Z,49.16
2022-08-05T19:28:41.994Z,49.17
2022-08-05T19:31:09.849Z,48.70
2022-08-05T19:33:48.376Z,48.69
2022-08-05T19:36:24.218Z,48.42
2022-08-05T19:38:51.916Z,48.16
2022-08-05T19:41:22.051Z,48.18
2022-08-05T19:44:13.005Z,47.90
2022-08-05T19:46:40.842Z,47.34
2022-08-05T19:49:08.400Z,47.54
2022-08-05T19:52:08.505Z,47.01
2022-08-05T19:54:32.740Z,46.87
2022-08-05T19:57:02.071Z,46.73
2022-08-05T19:59:54.586Z,46.56
2022-08-05T20:02:19.701Z,46.65
2022-08-05T20:04:48.500Z,46.28
2022-08-05T20:07:16.077Z,46.17
2022-08-05T20:10:04.881Z,46.23
2022-08-05T20:12:47.965Z,45.65
2022-08-05T20:15:48.734Z,46.41
2022-08-05T20:18:10.061Z,45.64
2022-08-05T20:20:46.966Z,45.72
2022-08-05T20:23:14.434Z,45.58
2022-08-05T20:25:42.618Z,45.42
2022-08-05T20:28:14.568Z,45.06
2022-08-05T20:30:43.490Z,44.91
2022-08-05T20:33:10.940Z,45.11
2022-08-05T20:35:40.612Z,45.39
2022-08-05T20:38:20.144Z,44.78
2022-08-05T20:40:56.284Z,44.64
2022-08-05T20:43:58.297Z,44.85
2022-08-05T20:46:18.479Z,44.31
2022-08-05T20:48:52.345Z,44.88
2022-08-05T20:51:19.795Z,44.76
2022-08-05T20:53:56.927Z,44.55
2022-08-05T20:56:31.049Z,44.60
2022-08-05T20:59:13.982Z,44.98
2022-08-05T21:01:44.951Z,44.75
2022-08-05T21:04:12.451Z,44.92
2022-08-05T21:06:45.258Z,44.68
2022-08-05T21:09:14.337Z,44.20
2022-08-05T21:12:06.612Z,43.99
2022-08-05T21:14:32.043Z,44.07
2022-08-05T21:17:05.283Z,44.42
2022-08-05T21:19:47.375Z,44.43
2022-08-05T21:22:18.589Z,44.25
2022-08-05T21:24:51.819Z,45.14
2022-08-05T21:27:20.640Z,45.67
2022-08-05T21:29:54.022Z,45.15
2022-08-05T21:32:24.463Z,45.24
2022-08-05T21:35:08.681Z,45.31
2022-08-05T21:37:41.932Z,45.96
2022-08-05T21:40:16.515Z,45.65
2022-08-05T21:42:45.636Z,46.21
2022-08-05T21:45:24.633Z,45.88
2022-08-05T21:47:58.052Z,45.94
2022-08-05T21:50:25.794Z,46.11
2022-08-05T21:52:53.463Z,46.04
2022-08-05T21:56:01.397Z,45.97
2022-08-05T21:58:10.217Z,46.09
2022-08-05T22:00:40.098Z,46.24
2022-08-05T22:03:14.321Z,46.42
2022-08-05T22:05:49.130Z,46.53
2022-08-05T22:08:22.177Z,46.70
2022-08-05T22:10:51.827Z,46.93
2022-08-05T22:14:20.000Z,46.70
2022-08-05T22:16:32.124Z,46.52
2022-08-05T22:18:58.650Z,46.90
2022-08-05T22:21:26.425Z,46.79
2022-08-05T22:24:13.283Z,46.79
2022-08-05T22:27:17.271Z,47.35
2022-08-05T22:29:45.953Z,47.24
2022-08-05T22:32:17.422Z,46.83
2022-08-05T22:34:46.464Z,47.16
2022-08-05T22:37:13.919Z,47.22
2022-08-05T22:39:41.441Z,47.77
2022-08-05T22:42:10.472Z,47.30
2022-08-05T22:44:39.429Z,47.70
2022-08-05T22:47:07.773Z,47.11
2022-08-05T22:50:18.274Z,47.32
2022-08-05T22:52:30.299Z,47.46
2022-08-05T22:55:00.288Z,47.78
2022-08-05T22:57:36.345Z,47.36
2022-08-05T23:00:05.368Z,47.36
2022-08-05T23:02:35.687Z,47.74
2022-08-05T23:05:13.923Z,47.65
2022-08-05T23:07:45.120Z,47.44
2022-08-05T23:10:16.368Z,47.79
2022-08-05T23:12:47.799Z,48.00
2022-08-05T23:15:19.248Z,47.59
2022-08-05T23:18:00.761Z,47.38
2022-08-05T23:20:29.972Z,47.86
2022-08-05T23:22:58.988Z,47.69
2022-08-05T23:25:53.157Z,47.74
2022-08-05T23:28:16.003Z,47.31
2022-08-05T23:30:53.488Z,47.20
2022-08-05T23:33:25.846Z,47.55
2022-08-05T23:36:10.128Z,47.55
2022-08-05T23:38:39.156Z,47.61
2022-08-05T23:41:06.801Z,47.28
2022-08-05T23:43:37.428Z,47.43
2022-08-05T23:46:22.287Z,47.67
2022-08-05T23:49:00.256Z,46.78
2022-08-05T23:51:52.527Z,46.96
2022-08-05T23:54:26.065Z,46.46
2022-08-05T23:56:55.313Z,46.66
2022-08-05T23:59:23.116Z,47.07
